sensor_id;sensor_type;location;lat;lon;timestamp;P1;durP1;ratioP1;P2;durP2;ratioP2
29838;SDS011;18669;53.356;-1.464;2022-07-04T00:00:30;4.20;;;1.20;;
29838;SDS011;18669;53.356;-1.464;2022-07-04T00:02:56;3.92;;;1.15;;
29838;SDS011;18669;53.356;-1.464;2022-07-04T00:05:22;4.25;;;0.90;;
29838;SDS011;18669;53.356;-1.464;2022-07-04T00:07:49;2.45;;;1.40;;
29838;SDS011;18669;53.356;-1.464;2022-07-04T00:10:17;3.38;;;1.10;;
29838;SDS011;18669;53.356;-1.464;2022-07-04T00:12:46;5.03;;;1.20;;
29838;SDS011;18669;53.356;-1.464;2022-07-04T00:15:22;3.10;;;1.40;;
29838;SDS011;18669;53.356;-1.464;2022-07-04T00:17:50;2.85;;;1.10;;
29838;SDS011;18669;53.356;-1.464;2022-07-04T00:20:19;2.67;;;1.10;;
29838;SDS011;18669;53.356;-1.464;2022-07-04T00:22:46;1.75;;;1.00;;
29838;SDS011;18669;53.356;-1.464;2022-07-04T00:25:15;3.00;;;1.10;;
29838;SDS011;18669;53.356;-1.464;2022-07-04T00:27:44;1.58;;;0.93;;
29838;SDS011;18669;53.356;-1.464;2022-07-04T00:30:10;2.70;;;0.95;;
29838;SDS011;18669;53.356;-1.464;2022-07-04T00:32:37;1.42;;;1.00;;
29838;SDS011;18669;53.356;-1.464;2022-07-04T00:35:03;3.28;;;1.27;;
29838;SDS011;18669;53.356;-1.464;2022-07-04T00:37:51;3.70;;;1.02;;
29838;SDS011;18669;53.356;-1.464;2022-07-04T00:40:23;3.72;;;1.40;;
29838;SDS011;18669;53.356;-1.464;2022-07-04T00:42:53;2.58;;;1.33;;
29838;SDS011;18669;53.356;-1.464;2022-07-04T00:45:25;3.08;;;0.93;;
29838;SDS011;18669;53.356;-1.464;2022-07-04T00:47:55;1.38;;;0.82;;
29838;SDS011;18669;53.356;-1.464;2022-07-04T00:50:35;1.65;;;1.00;;
29838;SDS011;18669;53.356;-1.464;2022-07-04T00:53:01;2.80;;;1.00;;
29838;SDS011;18669;53.356;-1.464;2022-07-04T00:55:28;1.08;;;0.80;;
29838;SDS011;18669;53.356;-1.464;2022-07-04T00:57:58;2.08;;;1.10;;
29838;SDS011;18669;53.356;-1.464;2022-07-04T01:00:25;2.17;;;0.90;;
29838;SDS011;18669;53.356;-1.464;2022-07-04T01:02:54;1.83;;;1.17;;
29838;SDS011;18669;53.356;-1.464;2022-07-04T01:05:21;5.38;;;1.10;;
29838;SDS011;18669;53.356;-1.464;2022-07-04T01:07:48;1.50;;;0.80;;
29838;SDS011;18669;53.356;-1.464;2022-07-04T01:10:16;2.15;;;0.95;;
29838;SDS011;18669;53.356;-1.464;2022-07-04T01:12:42;1.38;;;0.95;;
29838;SDS011;18669;53.356;-1.464;2022-07-04T01:15:09;1.33;;;0.82;;
29838;SDS011;18669;53.356;-1.464;2022-07-04T01:17:39;0.90;;;0.70;;
29838;SDS011;18669;53.356;-1.464;2022-07-04T01:20:09;0.95;;;0.90;;
29838;SDS011;18669;53.356;-1.464;2022-07-04T01:22:37;2.88;;;1.10;;
29838;SDS011;18669;53.356;-1.464;2022-07-04T01:25:07;1.27;;;1.17;;
29838;SDS011;18669;53.356;-1.464;2022-07-04T01:27:40;2.30;;;1.17;;
29838;SDS011;18669;53.356;-1.464;2022-07-04T01:30:13;2.05;;;0.80;;
29838;SDS011;18669;53.356;-1.464;2022-07-04T01:32:44;2.83;;;1.13;;
29838;SDS011;18669;53.356;-1.464;2022-07-04T01:35:10;1.40;;;0.80;;
29838;SDS011;18669;53.356;-1.464;2022-07-04T01:37:48;1.85;;;1.00;;
29838;SDS011;18669;53.356;-1.464;2022-07-04T01:40:21;3.47;;;1.17;;
29838;SDS011;18669;53.356;-1.464;2022-07-04T01:42:58;6.03;;;0.90;;
29838;SDS011;18669;53.356;-1.464;2022-07-04T01:45:27;1.63;;;0.90;;
29838;SDS011;18669;53.356;-1.464;2022-07-04T01:47:54;2.05;;;1.20;;
29838;SDS011;18669;53.356;-1.464;2022-07-04T01:50:29;1.10;;;1.00;;
29838;SDS011;18669;53.356;-1.464;2022-07-04T01:53:20;2.08;;;1.08;;
29838;SDS011;18669;53.356;-1.464;2022-07-04T01:55:52;1.00;;;0.75;;
29838;SDS011;18669;53.356;-1.464;2022-07-04T01:58:33;6.80;;;0.93;;
29838;SDS011;18669;53.356;-1.464;2022-07-04T02:01:19;2.53;;;0.90;;
29838;SDS011;18669;53.356;-1.464;2022-07-04T02:04:57;1.27;;;0.68;;
29838;SDS011;18669;53.356;-1.464;2022-07-04T02:07:54;3.28;;;1.15;;
29838;SDS011;18669;53.356;-1.464;2022-07-04T02:14:31;3.75;;;0.95;;
29838;SDS011;18669;53.356;-1.464;2022-07-04T02:25:31;1.65;;;0.73;;
29838;SDS011;18669;53.356;-1.464;2022-07-04T02:28:01;4.15;;;1.20;;
29838;SDS011;18669;53.356;-1.464;2022-07-04T02:30:30;3.13;;;1.05;;
29838;SDS011;18669;53.356;-1.464;2022-07-04T02:32:56;1.70;;;0.90;;
29838;SDS011;18669;53.356;-1.464;2022-07-04T02:42:49;2.85;;;1.23;;
29838;SDS011;18669;53.356;-1.464;2022-07-04T02:45:24;1.77;;;0.80;;
29838;SDS011;18669;53.356;-1.464;2022-07-04T02:47:51;1.92;;;0.80;;
29838;SDS011;18669;53.356;-1.464;2022-07-04T02:50:20;1.52;;;0.88;;
29838;SDS011;18669;53.356;-1.464;2022-07-04T02:52:47;3.25;;;0.95;;
29838;SDS011;18669;53.356;-1.464;2022-07-04T02:55:22;5.10;;;1.15;;
29838;SDS011;18669;53.356;-1.464;2022-07-04T02:58:26;2.00;;;0.90;;
29838;SDS011;18669;53.356;-1.464;2022-07-04T03:01:45;5.00;;;1.15;;
29838;SDS011;18669;53.356;-1.464;2022-07-04T03:04:15;0.88;;;0.70;;
29838;SDS011;18669;53.356;-1.464;2022-07-04T03:06:42;1.73;;;0.90;;
29838;SDS011;18669;53.356;-1.464;2022-07-04T03:09:09;2.40;;;1.30;;
29838;SDS011;18669;53.356;-1.464;2022-07-04T03:11:35;2.38;;;0.82;;
29838;SDS011;18669;53.356;-1.464;2022-07-04T03:14:02;2.10;;;1.00;;
29838;SDS011;18669;53.356;-1.464;2022-07-04T03:16:37;1.50;;;0.80;;
29838;SDS011;18669;53.356;-1.464;2022-07-04T03:19:09;3.03;;;1.30;;
29838;SDS011;18669;53.356;-1.464;2022-07-04T03:21:36;1.55;;;0.82;;
29838;SDS011;18669;53.356;-1.464;2022-07-04T03:24:02;2.97;;;1.00;;
29838;SDS011;18669;53.356;-1.464;2022-07-04T03:26:30;1.23;;;0.80;;
29838;SDS011;18669;53.356;-1.464;2022-07-04T03:32:42;1.25;;;0.80;;
29838;SDS011;18669;53.356;-1.464;2022-07-04T03:35:17;3.53;;;1.10;;
29838;SDS011;18669;53.356;-1.464;2022-07-04T03:37:44;1.17;;;0.95;;
29838;SDS011;18669;53.356;-1.464;2022-07-04T03:40:17;7.20;;;1.63;;
29838;SDS011;18669;53.356;-1.464;2022-07-04T03:43:20;4.93;;;1.20;;
29838;SDS011;18669;53.356;-1.464;2022-07-04T03:45:47;1.77;;;0.95;;
29838;SDS011;18669;53.356;-1.464;2022-07-04T03:48:13;2.42;;;0.93;;
29838;SDS011;18669;53.356;-1.464;2022-07-04T03:50:39;1.55;;;1.02;;
29838;SDS011;18669;53.356;-1.464;2022-07-04T03:53:12;2.97;;;1.13;;
29838;SDS011;18669;53.356;-1.464;2022-07-04T03:55:38;1.77;;;1.10;;
29838;SDS011;18669;53.356;-1.464;2022-07-04T03:58:05;3.45;;;1.02;;
29838;SDS011;18669;53.356;-1.464;2022-07-04T04:00:34;3.13;;;0.80;;
29838;SDS011;18669;53.356;-1.464;2022-07-04T04:03:08;2.90;;;0.98;;
29838;SDS011;18669;53.356;-1.464;2022-07-04T04:05:54;3.90;;;1.20;;
29838;SDS011;18669;53.356;-1.464;2022-07-04T04:08:23;5.90;;;1.30;;
29838;SDS011;18669;53.356;-1.464;2022-07-04T04:14:11;2.38;;;1.40;;
29838;SDS011;18669;53.356;-1.464;2022-07-04T04:16:57;4.07;;;1.33;;
29838;SDS011;18669;53.356;-1.464;2022-07-04T04:20:34;3.28;;;1.30;;
29838;SDS011;18669;53.356;-1.464;2022-07-04T04:23:03;2.28;;;1.20;;
29838;SDS011;18669;53.356;-1.464;2022-07-04T04:25:29;2.95;;;1.70;;
29838;SDS011;18669;53.356;-1.464;2022-07-04T04:27:55;2.13;;;1.65;;
29838;SDS011;18669;53.356;-1.464;2022-07-04T04:30:23;2.22;;;1.42;;
29838;SDS011;18669;53.356;-1.464;2022-07-04T04:36:42;4.60;;;1.70;;
29838;SDS011;18669;53.356;-1.464;2022-07-04T04:39:09;3.35;;;1.60;;
29838;SDS011;18669;53.356;-1.464;2022-07-04T04:41:36;3.33;;;1.50;;
29838;SDS011;18669;53.356;-1.464;2022-07-04T04:44:06;3.65;;;1.60;;
29838;SDS011;18669;53.356;-1.464;2022-07-04T04:46:35;2.60;;;1.35;;
29838;SDS011;18669;53.356;-1.464;2022-07-04T04:49:11;2.97;;;1.87;;
29838;SDS011;18669;53.356;-1.464;2022-07-04T04:51:38;2.10;;;1.83;;
29838;SDS011;18669;53.356;-1.464;2022-07-04T04:54:07;3.35;;;1.70;;
29838;SDS011;18669;53.356;-1.464;2022-07-04T04:56:33;3.38;;;1.60;;
29838;SDS011;18669;53.356;-1.464;2022-07-04T04:59:00;4.00;;;1.77;;
29838;SDS011;18669;53.356;-1.464;2022-07-04T05:01:27;3.13;;;1.40;;
29838;SDS011;18669;53.356;-1.464;2022-07-04T05:03:53;4.03;;;1.70;;
29838;SDS011;18669;53.356;-1.464;2022-07-04T05:06:20;5.90;;;1.55;;
29838;SDS011;18669;53.356;-1.464;2022-07-04T05:08:49;6.03;;;2.92;;
29838;SDS011;18669;53.356;-1.464;2022-07-04T05:11:16;4.53;;;1.92;;
29838;SDS011;18669;53.356;-1.464;2022-07-04T05:13:42;5.88;;;1.67;;
29838;SDS011;18669;53.356;-1.464;2022-07-04T05:16:08;2.58;;;1.63;;
29838;SDS011;18669;53.356;-1.464;2022-07-04T05:18:38;3.30;;;1.40;;
29838;SDS011;18669;53.356;-1.464;2022-07-04T05:21:11;3.35;;;1.40;;
29838;SDS011;18669;53.356;-1.464;2022-07-04T05:23:45;3.83;;;1.45;;
29838;SDS011;18669;53.356;-1.464;2022-07-04T05:26:19;5.40;;;1.50;;
29838;SDS011;18669;53.356;-1.464;2022-07-04T05:28:55;1.85;;;1.60;;
29838;SDS011;18669;53.356;-1.464;2022-07-04T05:31:28;2.17;;;1.50;;
29838;SDS011;18669;53.356;-1.464;2022-07-04T05:33:57;3.25;;;1.58;;
29838;SDS011;18669;53.356;-1.464;2022-07-04T05:36:24;2.40;;;1.55;;
29838;SDS011;18669;53.356;-1.464;2022-07-04T05:38:52;4.05;;;1.85;;
29838;SDS011;18669;53.356;-1.464;2022-07-04T05:41:21;6.82;;;1.77;;
29838;SDS011;18669;53.356;-1.464;2022-07-04T05:43:48;3.00;;;1.83;;
29838;SDS011;18669;53.356;-1.464;2022-07-04T05:46:14;3.22;;;1.88;;
29838;SDS011;18669;53.356;-1.464;2022-07-04T05:49:26;3.90;;;1.75;;
29838;SDS011;18669;53.356;-1.464;2022-07-04T05:52:40;3.38;;;1.30;;
29838;SDS011;18669;53.356;-1.464;2022-07-04T05:55:06;5.55;;;1.45;;
29838;SDS011;18669;53.356;-1.464;2022-07-04T05:57:39;3.20;;;1.27;;
29838;SDS011;18669;53.356;-1.464;2022-07-04T06:00:09;1.30;;;1.20;;
29838;SDS011;18669;53.356;-1.464;2022-07-04T06:02:40;3.58;;;1.35;;
29838;SDS011;18669;53.356;-1.464;2022-07-04T06:05:19;3.55;;;1.50;;
29838;SDS011;18669;53.356;-1.464;2022-07-04T06:07:45;3.08;;;1.30;;
29838;SDS011;18669;53.356;-1.464;2022-07-04T06:17:35;3.47;;;1.45;;
29838;SDS011;18669;53.356;-1.464;2022-07-04T06:20:03;3.70;;;2.30;;
29838;SDS011;18669;53.356;-1.464;2022-07-04T06:25:45;5.20;;;2.72;;
29838;SDS011;18669;53.356;-1.464;2022-07-04T06:28:54;3.15;;;2.75;;
29838;SDS011;18669;53.356;-1.464;2022-07-04T06:31:21;3.08;;;2.75;;
29838;SDS011;18669;53.356;-1.464;2022-07-04T06:33:51;4.00;;;2.65;;
29838;SDS011;18669;53.356;-1.464;2022-07-04T06:36:37;13.75;;;3.22;;
29838;SDS011;18669;53.356;-1.464;2022-07-04T06:39:03;4.13;;;2.58;;
29838;SDS011;18669;53.356;-1.464;2022-07-04T06:41:38;2.33;;;2.10;;
29838;SDS011;18669;53.356;-1.464;2022-07-04T06:44:16;2.60;;;1.80;;
29838;SDS011;18669;53.356;-1.464;2022-07-04T06:46:48;5.90;;;2.00;;
29838;SDS011;18669;53.356;-1.464;2022-07-04T06:49:25;3.80;;;1.85;;
29838;SDS011;18669;53.356;-1.464;2022-07-04T06:52:02;5.68;;;2.25;;
29838;SDS011;18669;53.356;-1.464;2022-07-04T06:54:29;3.65;;;1.63;;
29838;SDS011;18669;53.356;-1.464;2022-07-04T06:56:58;3.40;;;1.40;;
29838;SDS011;18669;53.356;-1.464;2022-07-04T06:59:25;5.10;;;1.38;;
29838;SDS011;18669;53.356;-1.464;2022-07-04T07:01:57;2.85;;;1.30;;
29838;SDS011;18669;53.356;-1.464;2022-07-04T07:04:26;1.80;;;0.80;;
29838;SDS011;18669;53.356;-1.464;2022-07-04T07:07:13;1.63;;;1.15;;
29838;SDS011;18669;53.356;-1.464;2022-07-04T07:09:43;3.83;;;0.90;;
29838;SDS011;18669;53.356;-1.464;2022-07-04T07:12:32;1.23;;;0.70;;
29838;SDS011;18669;53.356;-1.464;2022-07-04T07:15:10;3.75;;;0.50;;
29838;SDS011;18669;53.356;-1.464;2022-07-04T07:22:09;4.78;;;0.80;;
29838;SDS011;18669;53.356;-1.464;2022-07-04T07:24:51;2.22;;;0.55;;
29838;SDS011;18669;53.356;-1.464;2022-07-04T07:34:11;2.40;;;2.05;;
29838;SDS011;18669;53.356;-1.464;2022-07-04T07:51:54;3.58;;;1.13;;
29838;SDS011;18669;53.356;-1.464;2022-07-04T07:54:24;2.05;;;1.20;;
29838;SDS011;18669;53.356;-1.464;2022-07-04T07:56:59;1.10;;;1.00;;
29838;SDS011;18669;53.356;-1.464;2022-07-04T07:59:32;0.75;;;0.70;;
29838;SDS011;18669;53.356;-1.464;2022-07-04T08:02:05;2.97;;;0.95;;
29838;SDS011;18669;53.356;-1.464;2022-07-04T08:04:40;0.75;;;0.68;;
29838;SDS011;18669;53.356;-1.464;2022-07-04T08:07:10;3.15;;;0.90;;
29838;SDS011;18669;53.356;-1.464;2022-07-04T08:12:42;6.82;;;1.42;;
29838;SDS011;18669;53.356;-1.464;2022-07-04T08:15:18;1.38;;;0.80;;
29838;SDS011;18669;53.356;-1.464;2022-07-04T08:17:45;0.73;;;0.70;;
29838;SDS011;18669;53.356;-1.464;2022-07-04T08:20:13;10.55;;;1.55;;
29838;SDS011;18669;53.356;-1.464;2022-07-04T08:29:31;4.32;;;1.20;;
29838;SDS011;18669;53.356;-1.464;2022-07-04T08:36:28;2.70;;;1.05;;
29838;SDS011;18669;53.356;-1.464;2022-07-04T08:42:24;1.13;;;0.70;;
29838;SDS011;18669;53.356;-1.464;2022-07-04T08:45:29;2.30;;;0.80;;
29838;SDS011;18669;53.356;-1.464;2022-07-04T08:48:49;1.17;;;0.70;;
29838;SDS011;18669;53.356;-1.464;2022-07-04T09:02:52;2.53;;;0.80;;
29838;SDS011;18669;53.356;-1.464;2022-07-04T09:05:28;0.73;;;0.63;;
29838;SDS011;18669;53.356;-1.464;2022-07-04T09:07:58;1.98;;;0.80;;
29838;SDS011;18669;53.356;-1.464;2022-07-04T09:10:52;1.10;;;0.70;;
29838;SDS011;18669;53.356;-1.464;2022-07-04T09:13:36;4.78;;;0.60;;
29838;SDS011;18669;53.356;-1.464;2022-07-04T09:16:32;1.33;;;0.73;;
29838;SDS011;18669;53.356;-1.464;2022-07-04T09:19:01;1.42;;;0.60;;
29838;SDS011;18669;53.356;-1.464;2022-07-04T09:21:44;1.00;;;0.65;;
29838;SDS011;18669;53.356;-1.464;2022-07-04T09:25:38;2.33;;;0.60;;
29838;SDS011;18669;53.356;-1.464;2022-07-04T09:28:38;3.28;;;1.52;;
29838;SDS011;18669;53.356;-1.464;2022-07-04T09:43:18;1.02;;;0.40;;
29838;SDS011;18669;53.356;-1.464;2022-07-04T09:57:45;5.30;;;0.60;;
29838;SDS011;18669;53.356;-1.464;2022-07-04T10:07:56;0.57;;;0.45;;
29838;SDS011;18669;53.356;-1.464;2022-07-04T10:14:22;3.60;;;0.70;;
29838;SDS011;18669;53.356;-1.464;2022-07-04T10:28:38;0.73;;;0.60;;
29838;SDS011;18669;53.356;-1.464;2022-07-04T10:35:53;0.90;;;0.47;;
29838;SDS011;18669;53.356;-1.464;2022-07-04T10:38:35;1.80;;;0.70;;
29838;SDS011;18669;53.356;-1.464;2022-07-04T10:41:55;4.43;;;1.05;;
29838;SDS011;18669;53.356;-1.464;2022-07-04T10:44:24;2.22;;;0.85;;
29838;SDS011;18669;53.356;-1.464;2022-07-04T10:46:52;2.92;;;0.73;;
29838;SDS011;18669;53.356;-1.464;2022-07-04T10:49:23;4.00;;;0.98;;
29838;SDS011;18669;53.356;-1.464;2022-07-04T10:54:38;1.15;;;0.60;;
29838;SDS011;18669;53.356;-1.464;2022-07-04T10:57:16;2.55;;;0.80;;
29838;SDS011;18669;53.356;-1.464;2022-07-04T11:02:24;3.20;;;0.63;;
29838;SDS011;18669;53.356;-1.464;2022-07-04T11:05:08;3.75;;;0.70;;
29838;SDS011;18669;53.356;-1.464;2022-07-04T11:19:48;2.97;;;0.65;;
29838;SDS011;18669;53.356;-1.464;2022-07-04T11:22:25;3.35;;;2.08;;
29838;SDS011;18669;53.356;-1.464;2022-07-04T11:25:55;2.78;;;0.93;;
29838;SDS011;18669;53.356;-1.464;2022-07-04T11:29:15;2.78;;;0.73;;
29838;SDS011;18669;53.356;-1.464;2022-07-04T11:32:03;3.53;;;0.60;;
29838;SDS011;18669;53.356;-1.464;2022-07-04T11:35:20;3.83;;;0.60;;
29838;SDS011;18669;53.356;-1.464;2022-07-04T11:37:50;3.55;;;0.50;;
29838;SDS011;18669;53.356;-1.464;2022-07-04T11:40:42;1.70;;;0.55;;
29838;SDS011;18669;53.356;-1.464;2022-07-04T11:43:41;0.90;;;0.60;;
29838;SDS011;18669;53.356;-1.464;2022-07-04T11:46:29;1.95;;;0.43;;
29838;SDS011;18669;53.356;-1.464;2022-07-04T11:49:09;2.63;;;0.55;;
29838;SDS011;18669;53.356;-1.464;2022-07-04T11:51:46;3.55;;;1.10;;
29838;SDS011;18669;53.356;-1.464;2022-07-04T11:54:25;1.83;;;0.52;;
29838;SDS011;18669;53.356;-1.464;2022-07-04T12:00:53;0.90;;;0.52;;
29838;SDS011;18669;53.356;-1.464;2022-07-04T12:06:23;2.28;;;0.75;;
29838;SDS011;18669;53.356;-1.464;2022-07-04T12:16:03;1.20;;;0.70;;
29838;SDS011;18669;53.356;-1.464;2022-07-04T12:18:40;2.05;;;0.80;;
29838;SDS011;18669;53.356;-1.464;2022-07-04T12:21:16;2.97;;;0.77;;
29838;SDS011;18669;53.356;-1.464;2022-07-04T12:23:53;1.80;;;0.70;;
29838;SDS011;18669;53.356;-1.464;2022-07-04T12:26:20;3.13;;;1.05;;
29838;SDS011;18669;53.356;-1.464;2022-07-04T12:29:14;1.05;;;0.60;;
29838;SDS011;18669;53.356;-1.464;2022-07-04T12:32:59;3.95;;;0.90;;
29838;SDS011;18669;53.356;-1.464;2022-07-04T12:36:24;4.60;;;1.15;;
29838;SDS011;18669;53.356;-1.464;2022-07-04T12:38:53;4.20;;;0.70;;
29838;SDS011;18669;53.356;-1.464;2022-07-04T12:41:32;2.95;;;0.90;;
29838;SDS011;18669;53.356;-1.464;2022-07-04T12:44:01;3.05;;;0.65;;
29838;SDS011;18669;53.356;-1.464;2022-07-04T12:47:51;5.70;;;0.93;;
29838;SDS011;18669;53.356;-1.464;2022-07-04T12:50:48;4.28;;;1.00;;
29838;SDS011;18669;53.356;-1.464;2022-07-04T12:53:24;1.48;;;0.77;;
29838;SDS011;18669;53.356;-1.464;2022-07-04T12:56:01;4.07;;;0.80;;
29838;SDS011;18669;53.356;-1.464;2022-07-04T12:58:34;1.35;;;0.70;;
29838;SDS011;18669;53.356;-1.464;2022-07-04T13:01:02;6.45;;;0.95;;
29838;SDS011;18669;53.356;-1.464;2022-07-04T13:03:35;2.67;;;1.00;;
29838;SDS011;18669;53.356;-1.464;2022-07-04T13:06:25;1.92;;;0.75;;
29838;SDS011;18669;53.356;-1.464;2022-07-04T13:10:06;4.65;;;0.75;;
29838;SDS011;18669;53.356;-1.464;2022-07-04T13:13:18;2.40;;;0.52;;
29838;SDS011;18669;53.356;-1.464;2022-07-04T13:15:45;2.38;;;0.73;;
29838;SDS011;18669;53.356;-1.464;2022-07-04T13:18:17;4.45;;;0.80;;
29838;SDS011;18669;53.356;-1.464;2022-07-04T13:20:47;1.60;;;0.70;;
29838;SDS011;18669;53.356;-1.464;2022-07-04T13:23:14;1.92;;;0.80;;
29838;SDS011;18669;53.356;-1.464;2022-07-04T13:25:40;4.00;;;0.70;;
29838;SDS011;18669;53.356;-1.464;2022-07-04T13:28:16;2.75;;;1.20;;
29838;SDS011;18669;53.356;-1.464;2022-07-04T13:30:48;2.28;;;0.50;;
29838;SDS011;18669;53.356;-1.464;2022-07-04T13:33:22;3.83;;;0.60;;
29838;SDS011;18669;53.356;-1.464;2022-07-04T13:35:49;1.80;;;0.60;;
29838;SDS011;18669;53.356;-1.464;2022-07-04T13:38:22;2.28;;;0.55;;
29838;SDS011;18669;53.356;-1.464;2022-07-04T13:41:02;8.43;;;0.93;;
29838;SDS011;18669;53.356;-1.464;2022-07-04T13:43:32;2.92;;;0.55;;
29838;SDS011;18669;53.356;-1.464;2022-07-04T13:45:59;1.65;;;0.52;;
29838;SDS011;18669;53.356;-1.464;2022-07-04T13:48:32;2.20;;;1.08;;
29838;SDS011;18669;53.356;-1.464;2022-07-04T13:51:08;2.72;;;0.95;;
29838;SDS011;18669;53.356;-1.464;2022-07-04T13:53:34;1.33;;;0.70;;
29838;SDS011;18669;53.356;-1.464;2022-07-04T13:56:05;5.18;;;0.85;;
29838;SDS011;18669;53.356;-1.464;2022-07-04T13:58:47;1.40;;;0.55;;
29838;SDS011;18669;53.356;-1.464;2022-07-04T14:02:15;2.25;;;0.60;;
29838;SDS011;18669;53.356;-1.464;2022-07-04T14:20:58;5.95;;;0.80;;
29838;SDS011;18669;53.356;-1.464;2022-07-04T14:23:34;4.85;;;0.70;;
29838;SDS011;18669;53.356;-1.464;2022-07-04T14:26:12;7.75;;;1.10;;
29838;SDS011;18669;53.356;-1.464;2022-07-04T14:29:04;6.13;;;0.80;;
29838;SDS011;18669;53.356;-1.464;2022-07-04T14:36:33;6.60;;;0.55;;
29838;SDS011;18669;53.356;-1.464;2022-07-04T14:40:13;2.38;;;0.60;;
29838;SDS011;18669;53.356;-1.464;2022-07-04T14:43:01;2.22;;;0.70;;
29838;SDS011;18669;53.356;-1.464;2022-07-04T14:45:55;1.95;;;0.85;;
29838;SDS011;18669;53.356;-1.464;2022-07-04T14:48:56;0.52;;;0.50;;
29838;SDS011;18669;53.356;-1.464;2022-07-04T14:51:31;2.25;;;0.80;;
29838;SDS011;18669;53.356;-1.464;2022-07-04T14:54:08;4.32;;;0.88;;
29838;SDS011;18669;53.356;-1.464;2022-07-04T14:56:51;0.93;;;0.40;;
29838;SDS011;18669;53.356;-1.464;2022-07-04T14:59:33;2.78;;;0.52;;
29838;SDS011;18669;53.356;-1.464;2022-07-04T15:02:35;3.25;;;0.80;;
29838;SDS011;18669;53.356;-1.464;2022-07-04T15:05:09;3.28;;;0.70;;
29838;SDS011;18669;53.356;-1.464;2022-07-04T15:08:02;8.95;;;1.65;;
29838;SDS011;18669;53.356;-1.464;2022-07-04T15:10:43;0.95;;;0.65;;
29838;SDS011;18669;53.356;-1.464;2022-07-04T15:13:19;2.78;;;0.82;;
29838;SDS011;18669;53.356;-1.464;2022-07-04T15:16:12;1.88;;;0.60;;
29838;SDS011;18669;53.356;-1.464;2022-07-04T15:22:34;3.15;;;0.70;;
29838;SDS011;18669;53.356;-1.464;2022-07-04T15:25:30;1.33;;;0.60;;
29838;SDS011;18669;53.356;-1.464;2022-07-04T15:27:56;3.80;;;0.77;;
29838;SDS011;18669;53.356;-1.464;2022-07-04T15:30:40;1.30;;;0.40;;
29838;SDS011;18669;53.356;-1.464;2022-07-04T15:33:22;1.60;;;0.57;;
29838;SDS011;18669;53.356;-1.464;2022-07-04T15:35:57;2.08;;;0.60;;
29838;SDS011;18669;53.356;-1.464;2022-07-04T15:38:26;2.35;;;0.60;;
29838;SDS011;18669;53.356;-1.464;2022-07-04T15:41:03;3.03;;;0.88;;
29838;SDS011;18669;53.356;-1.464;2022-07-04T15:44:04;2.17;;;0.90;;
29838;SDS011;18669;53.356;-1.464;2022-07-04T15:49:53;1.63;;;0.60;;
29838;SDS011;18669;53.356;-1.464;2022-07-04T15:52:19;9.23;;;0.90;;
29838;SDS011;18669;53.356;-1.464;2022-07-04T15:54:55;2.28;;;0.98;;
29838;SDS011;18669;53.356;-1.464;2022-07-04T15:57:24;3.65;;;1.80;;
29838;SDS011;18669;53.356;-1.464;2022-07-04T15:59:57;10.55;;;2.22;;
29838;SDS011;18669;53.356;-1.464;2022-07-04T16:02:26;6.50;;;2.30;;
29838;SDS011;18669;53.356;-1.464;2022-07-04T16:04:59;16.63;;;2.50;;
29838;SDS011;18669;53.356;-1.464;2022-07-04T16:07:54;11.88;;;1.08;;
29838;SDS011;18669;53.356;-1.464;2022-07-04T16:10:24;1.75;;;0.77;;
29838;SDS011;18669;53.356;-1.464;2022-07-04T16:12:57;1.55;;;0.70;;
29838;SDS011;18669;53.356;-1.464;2022-07-04T16:15:24;4.18;;;0.80;;
29838;SDS011;18669;53.356;-1.464;2022-07-04T16:18:55;2.42;;;0.73;;
29838;SDS011;18669;53.356;-1.464;2022-07-04T16:21:27;3.08;;;1.05;;
29838;SDS011;18669;53.356;-1.464;2022-07-04T16:24:02;0.73;;;0.50;;
29838;SDS011;18669;53.356;-1.464;2022-07-04T16:26:32;3.30;;;0.90;;
29838;SDS011;18669;53.356;-1.464;2022-07-04T16:29:05;1.57;;;0.60;;
29838;SDS011;18669;53.356;-1.464;2022-07-04T16:31:38;1.85;;;0.63;;
29838;SDS011;18669;53.356;-1.464;2022-07-04T16:37:42;2.38;;;0.60;;
29838;SDS011;18669;53.356;-1.464;2022-07-04T16:40:31;0.68;;;0.50;;
29838;SDS011;18669;53.356;-1.464;2022-07-04T16:43:00;1.60;;;0.80;;
29838;SDS011;18669;53.356;-1.464;2022-07-04T16:45:50;1.77;;;0.80;;
29838;SDS011;18669;53.356;-1.464;2022-07-04T16:48:16;2.10;;;0.70;;
29838;SDS011;18669;53.356;-1.464;2022-07-04T16:50:50;6.82;;;0.90;;
29838;SDS011;18669;53.356;-1.464;2022-07-04T16:53:28;3.50;;;0.70;;
29838;SDS011;18669;53.356;-1.464;2022-07-04T16:55:58;1.33;;;0.60;;
29838;SDS011;18669;53.356;-1.464;2022-07-04T16:58:31;1.63;;;0.75;;
29838;SDS011;18669;53.356;-1.464;2022-07-04T17:00:58;2.10;;;0.90;;
29838;SDS011;18669;53.356;-1.464;2022-07-04T17:03:30;3.40;;;0.90;;
29838;SDS011;18669;53.356;-1.464;2022-07-04T17:06:48;1.20;;;0.73;;
29838;SDS011;18669;53.356;-1.464;2022-07-04T17:09:15;2.83;;;0.93;;
29838;SDS011;18669;53.356;-1.464;2022-07-04T17:15:25;2.38;;;0.80;;
29838;SDS011;18669;53.356;-1.464;2022-07-04T17:21:38;2.22;;;0.70;;
29838;SDS011;18669;53.356;-1.464;2022-07-04T17:24:08;2.35;;;0.93;;
29838;SDS011;18669;53.356;-1.464;2022-07-04T17:26:35;3.13;;;1.02;;
29838;SDS011;18669;53.356;-1.464;2022-07-04T17:29:36;5.25;;;1.20;;
29838;SDS011;18669;53.356;-1.464;2022-07-04T17:32:04;2.15;;;0.88;;
29838;SDS011;18669;53.356;-1.464;2022-07-04T17:34:40;3.72;;;1.17;;
29838;SDS011;18669;53.356;-1.464;2022-07-04T17:37:42;1.48;;;0.70;;
29838;SDS011;18669;53.356;-1.464;2022-07-04T17:40:15;3.05;;;1.20;;
29838;SDS011;18669;53.356;-1.464;2022-07-04T17:42:42;2.67;;;0.88;;
29838;SDS011;18669;53.356;-1.464;2022-07-04T17:49:29;5.67;;;0.83;;
29838;SDS011;18669;53.356;-1.464;2022-07-04T17:52:17;4.72;;;0.93;;
29838;SDS011;18669;53.356;-1.464;2022-07-04T17:54:57;4.88;;;1.30;;
29838;SDS011;18669;53.356;-1.464;2022-07-04T18:01:33;2.67;;;1.02;;
29838;SDS011;18669;53.356;-1.464;2022-07-04T18:04:02;1.95;;;0.70;;
29838;SDS011;18669;53.356;-1.464;2022-07-04T18:06:41;0.60;;;0.60;;
29838;SDS011;18669;53.356;-1.464;2022-07-04T18:09:07;6.50;;;1.20;;
29838;SDS011;18669;53.356;-1.464;2022-07-04T18:12:25;4.43;;;0.80;;
29838;SDS011;18669;53.356;-1.464;2022-07-04T18:14:51;4.25;;;1.00;;
29838;SDS011;18669;53.356;-1.464;2022-07-04T18:17:23;2.65;;;0.80;;
29838;SDS011;18669;53.356;-1.464;2022-07-04T18:19:57;2.90;;;1.10;;
29838;SDS011;18669;53.356;-1.464;2022-07-04T18:22:27;4.43;;;1.00;;
29838;SDS011;18669;53.356;-1.464;2022-07-04T18:25:14;3.60;;;1.15;;
29838;SDS011;18669;53.356;-1.464;2022-07-04T18:27:55;3.38;;;1.10;;
29838;SDS011;18669;53.356;-1.464;2022-07-04T18:30:25;0.98;;;0.68;;
29838;SDS011;18669;53.356;-1.464;2022-07-04T18:32:57;4.95;;;1.02;;
29838;SDS011;18669;53.356;-1.464;2022-07-04T18:35:26;2.58;;;1.10;;
29838;SDS011;18669;53.356;-1.464;2022-07-04T18:38:02;5.72;;;2.47;;
29838;SDS011;18669;53.356;-1.464;2022-07-04T18:40:29;5.05;;;1.10;;
29838;SDS011;18669;53.356;-1.464;2022-07-04T18:43:16;2.88;;;1.05;;
29838;SDS011;18669;53.356;-1.464;2022-07-04T18:45:55;3.00;;;1.02;;
29838;SDS011;18669;53.356;-1.464;2022-07-04T18:48:33;2.28;;;1.10;;
29838;SDS011;18669;53.356;-1.464;2022-07-04T18:51:15;3.65;;;0.90;;
29838;SDS011;18669;53.356;-1.464;2022-07-04T18:53:44;2.30;;;0.98;;
29838;SDS011;18669;53.356;-1.464;2022-07-04T18:56:19;2.55;;;1.50;;
29838;SDS011;18669;53.356;-1.464;2022-07-04T18:58:49;3.13;;;0.85;;
29838;SDS011;18669;53.356;-1.464;2022-07-04T19:01:15;2.33;;;1.20;;
29838;SDS011;18669;53.356;-1.464;2022-07-04T19:03:41;3.95;;;1.33;;
29838;SDS011;18669;53.356;-1.464;2022-07-04T19:06:08;3.45;;;0.93;;
29838;SDS011;18669;53.356;-1.464;2022-07-04T19:08:34;2.88;;;0.93;;
29838;SDS011;18669;53.356;-1.464;2022-07-04T19:11:01;1.77;;;0.98;;
29838;SDS011;18669;53.356;-1.464;2022-07-04T19:13:30;2.92;;;1.00;;
29838;SDS011;18669;53.356;-1.464;2022-07-04T19:15:57;3.08;;;0.75;;
29838;SDS011;18669;53.356;-1.464;2022-07-04T19:18:35;4.13;;;1.10;;